sensor_id;sensor_type;location;lat;lon;timestamp;P1;durP1;ratioP1;P2;durP2;ratioP2
40929;SDS011;26659;47.962;21.652;2022-08-20T00:00:23;15.02;;;6.13;;
40929;SDS011;26659;47.962;21.652;2022-08-20T00:02:52;14.05;;;6.72;;
40929;SDS011;26659;47.962;21.652;2022-08-20T00:05:22;19.55;;;6.43;;
40929;SDS011;26659;47.962;21.652;2022-08-20T00:07:55;11.07;;;5.32;;
40929;SDS011;26659;47.962;21.652;2022-08-20T00:10:23;14.77;;;5.95;;
40929;SDS011;26659;47.962;21.652;2022-08-20T00:12:50;13.15;;;6.25;;
40929;SDS011;26659;47.962;21.652;2022-08-20T00:15:17;17.73;;;7.03;;
40929;SDS011;26659;47.962;21.652;2022-08-20T00:17:46;14.57;;;6.85;;
40929;SDS011;26659;47.962;21.652;2022-08-20T00:20:15;13.88;;;6.35;;
40929;SDS011;26659;47.962;21.652;2022-08-20T00:22:41;11.70;;;5.80;;
40929;SDS011;26659;47.962;21.652;2022-08-20T00:25:08;16.98;;;6.82;;
40929;SDS011;26659;47.962;21.652;2022-08-20T00:27:34;13.27;;;6.53;;
40929;SDS011;26659;47.962;21.652;2022-08-20T00:30:00;14.32;;;6.28;;
40929;SDS011;26659;47.962;21.652;2022-08-20T00:32:26;13.13;;;6.13;;
40929;SDS011;26659;47.962;21.652;2022-08-20T00:34:51;12.48;;;5.95;;
40929;SDS011;26659;47.962;21.652;2022-08-20T00:37:17;13.32;;;6.25;;
40929;SDS011;26659;47.962;21.652;2022-08-20T00:39:42;13.98;;;6.45;;
40929;SDS011;26659;47.962;21.652;2022-08-20T00:42:08;13.32;;;6.57;;
40929;SDS011;26659;47.962;21.652;2022-08-20T00:44:33;12.80;;;6.00;;
40929;SDS011;26659;47.962;21.652;2022-08-20T00:46:59;16.15;;;6.78;;
40929;SDS011;26659;47.962;21.652;2022-08-20T00:49:27;15.27;;;6.78;;
40929;SDS011;26659;47.962;21.652;2022-08-20T00:52:01;16.75;;;6.80;;
40929;SDS011;26659;47.962;21.652;2022-08-20T00:54:35;15.35;;;6.22;;
40929;SDS011;26659;47.962;21.652;2022-08-20T00:57:06;14.98;;;7.00;;
40929;SDS011;26659;47.962;21.652;2022-08-20T00:59:35;12.88;;;5.82;;
40929;SDS011;26659;47.962;21.652;2022-08-20T01:02:05;12.43;;;6.35;;
40929;SDS011;26659;47.962;21.652;2022-08-20T01:04:33;15.15;;;6.85;;
40929;SDS011;26659;47.962;21.652;2022-08-20T01:07:00;12.98;;;5.82;;
40929;SDS011;26659;47.962;21.652;2022-08-20T01:09:27;12.43;;;6.15;;
40929;SDS011;26659;47.962;21.652;2022-08-20T01:11:53;13.43;;;6.53;;
40929;SDS011;26659;47.962;21.652;2022-08-20T01:14:18;13.90;;;6.72;;
40929;SDS011;26659;47.962;21.652;2022-08-20T01:16:49;13.40;;;6.65;;
40929;SDS011;26659;47.962;21.652;2022-08-20T01:19:19;12.45;;;6.68;;
40929;SDS011;26659;47.962;21.652;2022-08-20T01:21:48;15.48;;;6.60;;
40929;SDS011;26659;47.962;21.652;2022-08-20T01:26:45;14.25;;;6.70;;
40929;SDS011;26659;47.962;21.652;2022-08-20T01:29:21;15.30;;;6.45;;
40929;SDS011;26659;47.962;21.652;2022-08-20T01:31:49;12.98;;;6.85;;
40929;SDS011;26659;47.962;21.652;2022-08-20T01:34:17;15.90;;;7.72;;
40929;SDS011;26659;47.962;21.652;2022-08-20T01:36:45;12.70;;;6.07;;
40929;SDS011;26659;47.962;21.652;2022-08-20T01:39:24;14.73;;;6.80;;
40929;SDS011;26659;47.962;21.652;2022-08-20T01:44:18;19.92;;;7.07;;
40929;SDS011;26659;47.962;21.652;2022-08-20T01:46:46;14.45;;;6.22;;
40929;SDS011;26659;47.962;21.652;2022-08-20T01:49:15;23.80;;;8.43;;
40929;SDS011;26659;47.962;21.652;2022-08-20T01:51:44;17.42;;;6.90;;
40929;SDS011;26659;47.962;21.652;2022-08-20T01:54:10;15.85;;;7.05;;
40929;SDS011;26659;47.962;21.652;2022-08-20T01:56:38;16.58;;;8.05;;
40929;SDS011;26659;47.962;21.652;2022-08-20T01:59:16;15.18;;;7.22;;
40929;SDS011;26659;47.962;21.652;2022-08-20T02:01:42;13.38;;;6.13;;
40929;SDS011;26659;47.962;21.652;2022-08-20T02:04:08;15.13;;;7.35;;
40929;SDS011;26659;47.962;21.652;2022-08-20T02:06:39;15.35;;;7.63;;
40929;SDS011;26659;47.962;21.652;2022-08-20T02:09:08;15.25;;;6.65;;
40929;SDS011;26659;47.962;21.652;2022-08-20T02:11:35;14.52;;;6.70;;
40929;SDS011;26659;47.962;21.652;2022-08-20T02:14:01;17.70;;;6.70;;
40929;SDS011;26659;47.962;21.652;2022-08-20T02:16:31;14.93;;;5.90;;
40929;SDS011;26659;47.962;21.652;2022-08-20T02:19:05;15.70;;;7.10;;
40929;SDS011;26659;47.962;21.652;2022-08-20T02:21:36;14.57;;;6.90;;
40929;SDS011;26659;47.962;21.652;2022-08-20T02:24:05;20.27;;;6.97;;
40929;SDS011;26659;47.962;21.652;2022-08-20T02:26:31;12.00;;;6.07;;
40929;SDS011;26659;47.962;21.652;2022-08-20T02:28:57;18.30;;;5.90;;
40929;SDS011;26659;47.962;21.652;2022-08-20T02:31:23;14.07;;;6.47;;
40929;SDS011;26659;47.962;21.652;2022-08-20T02:33:50;14.33;;;5.63;;
40929;SDS011;26659;47.962;21.652;2022-08-20T02:36:16;14.07;;;6.43;;
40929;SDS011;26659;47.962;21.652;2022-08-20T02:38:43;12.07;;;6.50;;
40929;SDS011;26659;47.962;21.652;2022-08-20T02:41:10;14.52;;;5.63;;
40929;SDS011;26659;47.962;21.652;2022-08-20T02:43:36;13.82;;;5.97;;
40929;SDS011;26659;47.962;21.652;2022-08-20T02:46:02;12.23;;;6.00;;
40929;SDS011;26659;47.962;21.652;2022-08-20T02:48:29;14.52;;;5.68;;
40929;SDS011;26659;47.962;21.652;2022-08-20T02:50:56;15.45;;;6.68;;
40929;SDS011;26659;47.962;21.652;2022-08-20T02:53:26;14.65;;;6.47;;
40929;SDS011;26659;47.962;21.652;2022-08-20T02:55:53;13.68;;;5.55;;
40929;SDS011;26659;47.962;21.652;2022-08-20T02:58:19;18.33;;;7.10;;
40929;SDS011;26659;47.962;21.652;2022-08-20T03:00:45;13.25;;;7.15;;
40929;SDS011;26659;47.962;21.652;2022-08-20T03:03:11;14.20;;;5.85;;
40929;SDS011;26659;47.962;21.652;2022-08-20T03:05:40;15.98;;;5.63;;
40929;SDS011;26659;47.962;21.652;2022-08-20T03:08:07;15.93;;;5.00;;
40929;SDS011;26659;47.962;21.652;2022-08-20T03:10:36;11.75;;;5.80;;
40929;SDS011;26659;47.962;21.652;2022-08-20T03:15:31;15.23;;;6.00;;
40929;SDS011;26659;47.962;21.652;2022-08-20T03:17:57;15.07;;;6.47;;
40929;SDS011;26659;47.962;21.652;2022-08-20T03:20:23;11.43;;;6.05;;
40929;SDS011;26659;47.962;21.652;2022-08-20T03:22:50;15.60;;;6.10;;
40929;SDS011;26659;47.962;21.652;2022-08-20T03:25:16;13.90;;;6.30;;
40929;SDS011;26659;47.962;21.652;2022-08-20T03:27:42;19.92;;;7.13;;
40929;SDS011;26659;47.962;21.652;2022-08-20T03:30:09;14.02;;;6.55;;
40929;SDS011;26659;47.962;21.652;2022-08-20T03:32:37;13.60;;;5.88;;
40929;SDS011;26659;47.962;21.652;2022-08-20T03:35:04;13.70;;;5.55;;
40929;SDS011;26659;47.962;21.652;2022-08-20T03:37:33;19.65;;;6.90;;
40929;SDS011;26659;47.962;21.652;2022-08-20T03:40:00;12.23;;;6.32;;
40929;SDS011;26659;47.962;21.652;2022-08-20T03:42:27;11.73;;;5.57;;
40929;SDS011;26659;47.962;21.652;2022-08-20T03:44:53;14.13;;;6.07;;
40929;SDS011;26659;47.962;21.652;2022-08-20T03:47:19;11.55;;;6.18;;
40929;SDS011;26659;47.962;21.652;2022-08-20T03:49:45;16.93;;;6.93;;
40929;SDS011;26659;47.962;21.652;2022-08-20T03:52:10;15.15;;;6.90;;
40929;SDS011;26659;47.962;21.652;2022-08-20T03:54:36;13.52;;;6.10;;
40929;SDS011;26659;47.962;21.652;2022-08-20T03:57:01;16.05;;;6.93;;
40929;SDS011;26659;47.962;21.652;2022-08-20T03:59:28;12.50;;;6.47;;
40929;SDS011;26659;47.962;21.652;2022-08-20T04:01:57;11.82;;;6.15;;
40929;SDS011;26659;47.962;21.652;2022-08-20T04:04:24;15.25;;;6.47;;
40929;SDS011;26659;47.962;21.652;2022-08-20T04:06:49;12.85;;;6.13;;
40929;SDS011;26659;47.962;21.652;2022-08-20T04:09:15;13.90;;;6.78;;
40929;SDS011;26659;47.962;21.652;2022-08-20T04:11:41;16.50;;;6.13;;
40929;SDS011;26659;47.962;21.652;2022-08-20T04:14:07;13.63;;;6.50;;
40929;SDS011;26659;47.962;21.652;2022-08-20T04:16:33;14.98;;;6.10;;
40929;SDS011;26659;47.962;21.652;2022-08-20T04:18:59;12.90;;;6.65;;
40929;SDS011;26659;47.962;21.652;2022-08-20T04:21:25;14.32;;;6.13;;
40929;SDS011;26659;47.962;21.652;2022-08-20T04:23:50;12.02;;;5.53;;
40929;SDS011;26659;47.962;21.652;2022-08-20T04:26:16;12.15;;;4.82;;
40929;SDS011;26659;47.962;21.652;2022-08-20T04:28:43;15.10;;;6.72;;
40929;SDS011;26659;47.962;21.652;2022-08-20T04:31:09;14.32;;;6.18;;
40929;SDS011;26659;47.962;21.652;2022-08-20T04:33:37;13.27;;;6.07;;
40929;SDS011;26659;47.962;21.652;2022-08-20T04:36:03;11.05;;;5.53;;
40929;SDS011;26659;47.962;21.652;2022-08-20T04:38:29;12.05;;;5.30;;
40929;SDS011;26659;47.962;21.652;2022-08-20T04:40:55;13.88;;;6.18;;
40929;SDS011;26659;47.962;21.652;2022-08-20T04:43:26;11.77;;;5.65;;
40929;SDS011;26659;47.962;21.652;2022-08-20T04:45:54;11.93;;;5.63;;
40929;SDS011;26659;47.962;21.652;2022-08-20T04:48:22;14.63;;;5.63;;
40929;SDS011;26659;47.962;21.652;2022-08-20T04:50:49;17.25;;;5.80;;
40929;SDS011;26659;47.962;21.652;2022-08-20T04:53:17;12.75;;;5.53;;
40929;SDS011;26659;47.962;21.652;2022-08-20T04:55:45;9.95;;;5.00;;
40929;SDS011;26659;47.962;21.652;2022-08-20T04:58:15;13.18;;;5.13;;
40929;SDS011;26659;47.962;21.652;2022-08-20T05:00:52;15.02;;;6.18;;
40929;SDS011;26659;47.962;21.652;2022-08-20T05:03:20;14.45;;;4.78;;
40929;SDS011;26659;47.962;21.652;2022-08-20T05:05:47;11.63;;;4.80;;
40929;SDS011;26659;47.962;21.652;2022-08-20T05:08:13;10.80;;;4.82;;
40929;SDS011;26659;47.962;21.652;2022-08-20T05:10:40;9.63;;;4.32;;
40929;SDS011;26659;47.962;21.652;2022-08-20T05:13:06;8.97;;;3.93;;
40929;SDS011;26659;47.962;21.652;2022-08-20T05:15:33;13.18;;;4.40;;
40929;SDS011;26659;47.962;21.652;2022-08-20T05:17:59;11.38;;;4.55;;
40929;SDS011;26659;47.962;21.652;2022-08-20T05:20:30;10.07;;;3.95;;
40929;SDS011;26659;47.962;21.652;2022-08-20T05:22:58;9.85;;;4.32;;
40929;SDS011;26659;47.962;21.652;2022-08-20T05:27:57;12.13;;;5.07;;
40929;SDS011;26659;47.962;21.652;2022-08-20T05:30:25;7.55;;;3.13;;
40929;SDS011;26659;47.962;21.652;2022-08-20T05:32:57;12.50;;;3.70;;
40929;SDS011;26659;47.962;21.652;2022-08-20T05:35:27;11.18;;;3.70;;
40929;SDS011;26659;47.962;21.652;2022-08-20T05:37:54;10.40;;;3.20;;
40929;SDS011;26659;47.962;21.652;2022-08-20T05:40:21;8.13;;;3.20;;
40929;SDS011;26659;47.962;21.652;2022-08-20T05:42:48;11.68;;;4.43;;
40929;SDS011;26659;47.962;21.652;2022-08-20T05:45:15;12.18;;;3.50;;
40929;SDS011;26659;47.962;21.652;2022-08-20T05:47:42;9.73;;;3.47;;
40929;SDS011;26659;47.962;21.652;2022-08-20T05:50:09;10.75;;;3.55;;
40929;SDS011;26659;47.962;21.652;2022-08-20T05:52:37;10.52;;;3.03;;
40929;SDS011;26659;47.962;21.652;2022-08-20T05:55:04;10.03;;;3.07;;
40929;SDS011;26659;47.962;21.652;2022-08-20T05:57:30;9.43;;;2.78;;
40929;SDS011;26659;47.962;21.652;2022-08-20T05:59:55;9.33;;;3.20;;
40929;SDS011;26659;47.962;21.652;2022-08-20T06:02:23;10.20;;;2.45;;
40929;SDS011;26659;47.962;21.652;2022-08-20T06:05:07;8.90;;;3.42;;
40929;SDS011;26659;47.962;21.652;2022-08-20T06:07:32;13.50;;;3.13;;
40929;SDS011;26659;47.962;21.652;2022-08-20T06:09:59;10.73;;;2.70;;
40929;SDS011;26659;47.962;21.652;2022-08-20T06:12:24;9.20;;;3.17;;
40929;SDS011;26659;47.962;21.652;2022-08-20T06:14:50;14.87;;;2.70;;
40929;SDS011;26659;47.962;21.652;2022-08-20T06:17:16;8.17;;;2.60;;
40929;SDS011;26659;47.962;21.652;2022-08-20T06:19:43;5.53;;;2.55;;
40929;SDS011;26659;47.962;21.652;2022-08-20T06:22:10;9.60;;;2.55;;
40929;SDS011;26659;47.962;21.652;2022-08-20T06:24:37;8.13;;;2.20;;
40929;SDS011;26659;47.962;21.652;2022-08-20T06:27:03;9.63;;;2.43;;
40929;SDS011;26659;47.962;21.652;2022-08-20T06:29:29;7.25;;;2.58;;
40929;SDS011;26659;47.962;21.652;2022-08-20T06:31:57;13.05;;;3.67;;
40929;SDS011;26659;47.962;21.652;2022-08-20T06:34:22;6.63;;;2.05;;
40929;SDS011;26659;47.962;21.652;2022-08-20T06:36:52;7.45;;;2.97;;
40929;SDS011;26659;47.962;21.652;2022-08-20T06:39:18;7.25;;;2.63;;
40929;SDS011;26659;47.962;21.652;2022-08-20T06:41:43;7.82;;;2.53;;
40929;SDS011;26659;47.962;21.652;2022-08-20T06:44:09;9.27;;;2.58;;
40929;SDS011;26659;47.962;21.652;2022-08-20T06:46:35;9.63;;;2.50;;
40929;SDS011;26659;47.962;21.652;2022-08-20T06:49:02;10.18;;;2.50;;
40929;SDS011;26659;47.962;21.652;2022-08-20T06:51:29;6.75;;;2.40;;
40929;SDS011;26659;47.962;21.652;2022-08-20T06:53:55;5.63;;;2.30;;
40929;SDS011;26659;47.962;21.652;2022-08-20T06:56:20;8.52;;;2.33;;
40929;SDS011;26659;47.962;21.652;2022-08-20T06:58:46;9.88;;;2.70;;
40929;SDS011;26659;47.962;21.652;2022-08-20T07:01:11;19.33;;;4.10;;
40929;SDS011;26659;47.962;21.652;2022-08-20T07:03:41;8.05;;;2.55;;
40929;SDS011;26659;47.962;21.652;2022-08-20T07:06:07;9.50;;;2.47;;
40929;SDS011;26659;47.962;21.652;2022-08-20T07:08:33;8.25;;;2.50;;
40929;SDS011;26659;47.962;21.652;2022-08-20T07:13:25;9.15;;;2.42;;
40929;SDS011;26659;47.962;21.652;2022-08-20T07:15:50;8.65;;;2.90;;
40929;SDS011;26659;47.962;21.652;2022-08-20T07:18:16;16.37;;;2.70;;
40929;SDS011;26659;47.962;21.652;2022-08-20T07:20:41;7.07;;;3.13;;
40929;SDS011;26659;47.962;21.652;2022-08-20T07:23:08;11.63;;;2.60;;
40929;SDS011;26659;47.962;21.652;2022-08-20T07:25:36;9.13;;;2.92;;
40929;SDS011;26659;47.962;21.652;2022-08-20T07:28:04;8.27;;;2.10;;
40929;SDS011;26659;47.962;21.652;2022-08-20T07:30:41;8.43;;;2.42;;
40929;SDS011;26659;47.962;21.652;2022-08-20T07:33:25;8.82;;;2.05;;
40929;SDS011;26659;47.962;21.652;2022-08-20T07:35:53;5.28;;;2.20;;
40929;SDS011;26659;47.962;21.652;2022-08-20T07:38:21;12.63;;;2.65;;
40929;SDS011;26659;47.962;21.652;2022-08-20T07:40:51;5.50;;;1.83;;
40929;SDS011;26659;47.962;21.652;2022-08-20T07:43:22;8.93;;;2.40;;
40929;SDS011;26659;47.962;21.652;2022-08-20T07:45:49;9.77;;;2.30;;
40929;SDS011;26659;47.962;21.652;2022-08-20T07:48:15;7.10;;;2.22;;
40929;SDS011;26659;47.962;21.652;2022-08-20T07:50:41;10.75;;;2.30;;
40929;SDS011;26659;47.962;21.652;2022-08-20T07:53:07;6.72;;;2.60;;
40929;SDS011;26659;47.962;21.652;2022-08-20T07:55:33;5.55;;;2.00;;
40929;SDS011;26659;47.962;21.652;2022-08-20T07:58:02;7.63;;;2.33;;
40929;SDS011;26659;47.962;21.652;2022-08-20T08:00:31;9.50;;;2.53;;
40929;SDS011;26659;47.962;21.652;2022-08-20T08:02:57;11.02;;;2.55;;
40929;SDS011;26659;47.962;21.652;2022-08-20T08:05:23;7.15;;;2.13;;
40929;SDS011;26659;47.962;21.652;2022-08-20T08:07:48;7.53;;;2.33;;
40929;SDS011;26659;47.962;21.652;2022-08-20T08:12:46;7.25;;;1.90;;
40929;SDS011;26659;47.962;21.652;2022-08-20T08:15:15;5.25;;;2.00;;
40929;SDS011;26659;47.962;21.652;2022-08-20T08:17:43;5.60;;;2.53;;
40929;SDS011;26659;47.962;21.652;2022-08-20T08:20:12;7.32;;;2.13;;
40929;SDS011;26659;47.962;21.652;2022-08-20T08:22:39;6.22;;;2.20;;
40929;SDS011;26659;47.962;21.652;2022-08-20T08:25:11;9.85;;;2.47;;
40929;SDS011;26659;47.962;21.652;2022-08-20T08:27:37;10.93;;;2.30;;
40929;SDS011;26659;47.962;21.652;2022-08-20T08:35:01;12.98;;;2.38;;
40929;SDS011;26659;47.962;21.652;2022-08-20T08:37:28;6.30;;;2.25;;
40929;SDS011;26659;47.962;21.652;2022-08-20T08:39:54;5.63;;;2.33;;
40929;SDS011;26659;47.962;21.652;2022-08-20T08:42:22;9.47;;;2.57;;
40929;SDS011;26659;47.962;21.652;2022-08-20T08:44:50;15.27;;;2.40;;
40929;SDS011;26659;47.962;21.652;2022-08-20T08:47:26;13.23;;;2.75;;
40929;SDS011;26659;47.962;21.652;2022-08-20T08:49:55;6.85;;;2.33;;
40929;SDS011;26659;47.962;21.652;2022-08-20T08:52:31;10.80;;;2.15;;
40929;SDS011;26659;47.962;21.652;2022-08-20T08:55:00;8.13;;;2.30;;
40929;SDS011;26659;47.962;21.652;2022-08-20T08:57:29;8.07;;;2.42;;
40929;SDS011;26659;47.962;21.652;2022-08-20T08:59:59;5.93;;;2.20;;
40929;SDS011;26659;47.962;21.652;2022-08-20T09:02:27;13.23;;;2.30;;
40929;SDS011;26659;47.962;21.652;2022-08-20T09:04:55;11.85;;;2.05;;
40929;SDS011;26659;47.962;21.652;2022-08-20T09:07:25;15.98;;;2.08;;
40929;SDS011;26659;47.962;21.652;2022-08-20T09:09:55;8.63;;;2.03;;
40929;SDS011;26659;47.962;21.652;2022-08-20T09:12:22;5.20;;;2.08;;
40929;SDS011;26659;47.962;21.652;2022-08-20T09:14:51;8.70;;;1.90;;
40929;SDS011;26659;47.962;21.652;2022-08-20T09:17:18;7.03;;;2.53;;
40929;SDS011;26659;47.962;21.652;2022-08-20T09:19:45;5.78;;;1.90;;
40929;SDS011;26659;47.962;21.652;2022-08-20T09:22:15;6.03;;;2.05;;
40929;SDS011;26659;47.962;21.652;2022-08-20T09:24:42;7.30;;;2.17;;
40929;SDS011;26659;47.962;21.652;2022-08-20T09:27:08;13.98;;;2.55;;
40929;SDS011;26659;47.962;21.652;2022-08-20T09:29:34;5.93;;;2.00;;
40929;SDS011;26659;47.962;21.652;2022-08-20T09:32:10;6.22;;;1.88;;
40929;SDS011;26659;47.962;21.652;2022-08-20T09:34:38;10.93;;;2.75;;
40929;SDS011;26659;47.962;21.652;2022-08-20T09:37:06;7.53;;;2.40;;
40929;SDS011;26659;47.962;21.652;2022-08-20T09:39:31;11.97;;;2.50;;
40929;SDS011;26659;47.962;21.652;2022-08-20T09:44:36;10.73;;;2.35;;
40929;SDS011;26659;47.962;21.652;2022-08-20T09:47:02;6.10;;;1.90;;
40929;SDS011;26659;47.962;21.652;2022-08-20T09:49:28;11.95;;;3.55;;
40929;SDS011;26659;47.962;21.652;2022-08-20T09:51:54;6.27;;;2.33;;
40929;SDS011;26659;47.962;21.652;2022-08-20T09:54:20;11.20;;;2.45;;
40929;SDS011;26659;47.962;21.652;2022-08-20T09:56:46;9.07;;;2.42;;
40929;SDS011;26659;47.962;21.652;2022-08-20T09:59:12;5.57;;;2.08;;
40929;SDS011;26659;47.962;21.652;2022-08-20T10:01:39;7.15;;;2.40;;
40929;SDS011;26659;47.962;21.652;2022-08-20T10:04:05;13.27;;;2.23;;
40929;SDS011;26659;47.962;21.652;2022-08-20T10:06:30;7.05;;;1.98;;
40929;SDS011;26659;47.962;21.652;2022-08-20T10:08:56;7.90;;;2.60;;
40929;SDS011;26659;47.962;21.652;2022-08-20T10:11:21;15.03;;;2.23;;
40929;SDS011;26659;47.962;21.652;2022-08-20T10:13:47;9.57;;;2.20;;
40929;SDS011;26659;47.962;21.652;2022-08-20T10:16:12;7.70;;;2.10;;
40929;SDS011;26659;47.962;21.652;2022-08-20T10:18:38;8.23;;;1.90;;
40929;SDS011;26659;47.962;21.652;2022-08-20T10:21:08;10.75;;;2.65;;
40929;SDS011;26659;47.962;21.652;2022-08-20T10:23:36;7.90;;;1.92;;
40929;SDS011;26659;47.962;21.652;2022-08-20T10:26:02;5.60;;;2.00;;
40929;SDS011;26659;47.962;21.652;2022-08-20T10:28:28;5.15;;;1.83;;
40929;SDS011;26659;47.962;21.652;2022-08-20T10:30:53;12.10;;;2.17;;
40929;SDS011;26659;47.962;21.652;2022-08-20T10:33:19;5.77;;;1.90;;
40929;SDS011;26659;47.962;21.652;2022-08-20T10:35:44;6.23;;;2.07;;
40929;SDS011;26659;47.962;21.652;2022-08-20T10:38:10;9.73;;;2.33;;
40929;SDS011;26659;47.962;21.652;2022-08-20T10:40:35;5.53;;;1.80;;
40929;SDS011;26659;47.962;21.652;2022-08-20T10:43:00;6.53;;;2.10;;
40929;SDS011;26659;47.962;21.652;2022-08-20T10:47:52;12.48;;;2.83;;
40929;SDS011;26659;47.962;21.652;2022-08-20T10:50:17;10.07;;;1.97;;
40929;SDS011;26659;47.962;21.652;2022-08-20T10:55:10;8.57;;;2.03;;
40929;SDS011;26659;47.962;21.652;2022-08-20T10:57:37;5.40;;;2.17;;
40929;SDS011;26659;47.962;21.652;2022-08-20T11:00:05;5.68;;;2.05;;
40929;SDS011;26659;47.962;21.652;2022-08-20T11:02:33;8.90;;;2.70;;
40929;SDS011;26659;47.962;21.652;2022-08-20T11:04:59;10.25;;;2.10;;
40929;SDS011;26659;47.962;21.652;2022-08-20T11:07:27;6.03;;;2.40;;
40929;SDS011;26659;47.962;21.652;2022-08-20T11:09:57;12.45;;;2.15;;
40929;SDS011;26659;47.962;21.652;2022-08-20T11:12:23;8.75;;;2.42;;
40929;SDS011;26659;47.962;21.652;2022-08-20T11:14:50;7.15;;;1.90;;
40929;SDS011;26659;47.962;21.652;2022-08-20T11:17:23;5.75;;;1.80;;
40929;SDS011;26659;47.962;21.652;2022-08-20T11:19:52;5.78;;;1.90;;
40929;SDS011;26659;47.962;21.652;2022-08-20T11:22:18;10.13;;;2.20;;
40929;SDS011;26659;47.962;21.652;2022-08-20T11:24:45;7.05;;;2.90;;
40929;SDS011;26659;47.962;21.652;2022-08-20T11:29:41;8.75;;;2.50;;
40929;SDS011;26659;47.962;21.652;2022-08-20T11:32:07;9.93;;;2.27;;
40929;SDS011;26659;47.962;21.652;2022-08-20T11:34:32;6.93;;;2.28;;
40929;SDS011;26659;47.962;21.652;2022-08-20T11:36:58;11.57;;;2.20;;
40929;SDS011;26659;47.962;21.652;2022-08-20T11:39:24;8.00;;;2.75;;
40929;SDS011;26659;47.962;21.652;2022-08-20T11:41:50;6.07;;;2.25;;
40929;SDS011;26659;47.962;21.652;2022-08-20T11:44:15;9.25;;;2.17;;
40929;SDS011;26659;47.962;21.652;2022-08-20T11:46:41;8.10;;;2.10;;
40929;SDS011;26659;47.962;21.652;2022-08-20T11:49:06;7.80;;;2.30;;
40929;SDS011;26659;47.962;21.652;2022-08-20T11:51:32;10.83;;;2.00;;
40929;SDS011;26659;47.962;21.652;2022-08-20T11:53:58;5.38;;;1.92;;
40929;SDS011;26659;47.962;21.652;2022-08-20T11:56:23;11.13;;;2.70;;
40929;SDS011;26659;47.962;21.652;2022-08-20T11:58:48;7.43;;;2.70;;
40929;SDS011;26659;47.962;21.652;2022-08-20T12:01:14;9.23;;;2.47;;
40929;SDS011;26659;47.962;21.652;2022-08-20T12:03:40;8.80;;;2.15;;
40929;SDS011;26659;47.962;21.652;2022-08-20T12:06:05;9.88;;;2.40;;
40929;SDS011;26659;47.962;21.652;2022-08-20T12:08:31;6.95;;;2.10;;
40929;SDS011;26659;47.962;21.652;2022-08-20T12:10:57;12.27;;;2.30;;
40929;SDS011;26659;47.962;21.652;2022-08-20T12:13:28;8.10;;;3.00;;
40929;SDS011;26659;47.962;21.652;2022-08-20T12:15:56;9.65;;;2.00;;
40929;SDS011;26659;47.962;21.652;2022-08-20T12:18:22;5.80;;;2.05;;
40929;SDS011;26659;47.962;21.652;2022-08-20T12:20:47;5.57;;;2.15;;
40929;SDS011;26659;47.962;21.652;2022-08-20T12:23:13;7.40;;;2.73;;
40929;SDS011;26659;47.962;21.652;2022-08-20T12:25:39;5.80;;;2.22;;
40929;SDS011;26659;47.962;21.652;2022-08-20T12:28:05;9.52;;;2.28;;
40929;SDS011;26659;47.962;21.652;2022-08-20T12:30:31;9.15;;;2.70;;
40929;SDS011;26659;47.962;21.652;2022-08-20T12:35:23;8.23;;;2.38;;
40929;SDS011;26659;47.962;21.652;2022-08-20T12:37:49;28.63;;;3.88;;
40929;SDS011;26659;47.962;21.652;2022-08-20T12:40:23;12.75;;;2.75;;
40929;SDS011;26659;47.962;21.652;2022-08-20T12:42:50;14.88;;;2.17;;
40929;SDS011;26659;47.962;21.652;2022-08-20T12:45:16;16.00;;;2.57;;
40929;SDS011;26659;47.962;21.652;2022-08-20T12:47:43;12.73;;;1.88;;
40929;SDS011;26659;47.962;21.652;2022-08-20T12:50:14;18.50;;;2.72;;
40929;SDS011;26659;47.962;21.652;2022-08-20T12:52:48;15.60;;;2.80;;
40929;SDS011;26659;47.962;21.652;2022-08-20T12:55:14;11.15;;;2.67;;
40929;SDS011;26659;47.962;21.652;2022-08-20T12:57:56;14.82;;;2.40;;
40929;SDS011;26659;47.962;21.652;2022-08-20T13:02:54;10.15;;;2.08;;
40929;SDS011;26659;47.962;21.652;2022-08-20T13:05:21;17.20;;;2.50;;
40929;SDS011;26659;47.962;21.652;2022-08-20T13:10:24;11.05;;;2.15;;
40929;SDS011;26659;47.962;21.652;2022-08-20T13:12:52;14.73;;;1.75;;
40929;SDS011;26659;47.962;21.652;2022-08-20T13:15:21;13.90;;;2.40;;
40929;SDS011;26659;47.962;21.652;2022-08-20T13:17:51;10.98;;;1.98;;
40929;SDS011;26659;47.962;21.652;2022-08-20T13:22:42;12.17;;;1.80;;
40929;SDS011;26659;47.962;21.652;2022-08-20T13:25:09;8.80;;;1.83;;
40929;SDS011;26659;47.962;21.652;2022-08-20T13:27:36;14.82;;;2.35;;
40929;SDS011;26659;47.962;21.652;2022-08-20T13:30:04;9.57;;;1.90;;
40929;SDS011;26659;47.962;21.652;2022-08-20T13:42:15;18.57;;;2.07;;
40929;SDS011;26659;47.962;21.652;2022-08-20T13:44:41;12.15;;;2.15;;
40929;SDS011;26659;47.962;21.652;2022-08-20T13:49:43;13.00;;;1.90;;
40929;SDS011;26659;47.962;21.652;2022-08-20T13:54:35;8.88;;;2.45;;
40929;SDS011;26659;47.962;21.652;2022-08-20T13:57:05;19.08;;;2.60;;
40929;SDS011;26659;47.962;21.652;2022-08-20T13:59:34;9.40;;;1.70;;
40929;SDS011;26659;47.962;21.652;2022-08-20T14:02:01;9.07;;;1.95;;
40929;SDS011;26659;47.962;21.652;2022-08-20T14:04:27;8.40;;;2.10;;
40929;SDS011;26659;47.962;21.652;2022-08-20T14:06:52;14.50;;;1.90;;
40929;SDS011;26659;47.962;21.652;2022-08-20T14:09:18;7.73;;;2.30;;
40929;SDS011;26659;47.962;21.652;2022-08-20T14:11:43;9.37;;;2.00;;
40929;SDS011;26659;47.962;21.652;2022-08-20T14:14:08;5.40;;;1.40;;
40929;SDS011;26659;47.962;21.652;2022-08-20T14:16:34;10.03;;;2.03;;
40929;SDS011;26659;47.962;21.652;2022-08-20T14:18:59;10.53;;;2.30;;
40929;SDS011;26659;47.962;21.652;2022-08-20T14:21:25;9.90;;;1.87;;
40929;SDS011;26659;47.962;21.652;2022-08-20T14:23:50;8.83;;;1.60;;
40929;SDS011;26659;47.962;21.652;2022-08-20T14:26:16;6.27;;;1.43;;
40929;SDS011;26659;47.962;21.652;2022-08-20T14:28:41;5.47;;;1.60;;
40929;SDS011;26659;47.962;21.652;2022-08-20T14:31:06;5.53;;;1.63;;
40929;SDS011;26659;47.962;21.652;2022-08-20T14:33:32;8.43;;;1.60;;
40929;SDS011;26659;47.962;21.652;2022-08-20T14:35:57;4.43;;;1.40;;
40929;SDS011;26659;47.962;21.652;2022-08-20T14:38:23;9.80;;;1.80;;
40929;SDS011;26659;47.962;21.652;2022-08-20T14:40:48;8.10;;;1.50;;
40929;SDS011;26659;47.962;21.652;2022-08-20T14:43:14;10.93;;;2.40;;
40929;SDS011;26659;47.962;21.652;2022-08-20T14:45:40;7.45;;;1.55;;
40929;SDS011;26659;47.962;21.652;2022-08-20T14:48:06;6.77;;;1.80;;
40929;SDS011;26659;47.962;21.652;2022-08-20T14:50:33;9.13;;;1.58;;
40929;SDS011;26659;47.962;21.652;2022-08-20T14:53:00;6.80;;;1.50;;
40929;SDS011;26659;47.962;21.652;2022-08-20T14:55:27;8.17;;;1.53;;
40929;SDS011;26659;47.962;21.652;2022-08-20T14:57:54;9.18;;;1.38;;
40929;SDS011;26659;47.962;21.652;2022-08-20T15:00:22;8.93;;;1.17;;
40929;SDS011;26659;47.962;21.652;2022-08-20T15:02:50;7.95;;;1.30;;
40929;SDS011;26659;47.962;21.652;2022-08-20T15:05:16;8.88;;;1.27;;
40929;SDS011;26659;47.962;21.652;2022-08-20T15:07:43;5.80;;;1.08;;
40929;SDS011;26659;47.962;21.652;2022-08-20T15:10:12;7.65;;;1.52;;
40929;SDS011;26659;47.962;21.652;2022-08-20T15:12:40;3.03;;;1.10;;
40929;SDS011;26659;47.962;21.652;2022-08-20T15:15:06;5.83;;;1.30;;
40929;SDS011;26659;47.962;21.652;2022-08-20T15:17:34;6.60;;;1.25;;
40929;SDS011;26659;47.962;21.652;2022-08-20T15:20:00;2.35;;;1.00;;
40929;SDS011;26659;47.962;21.652;2022-08-20T15:22:32;11.68;;;1.30;;